createdAt,value
2023-05-11T00:01:25.779Z,33.40
2023-05-11T00:06:22.155Z,31.83
2023-05-11T00:11:18.871Z,36.97
2023-05-11T00:16:15.418Z,34.05
2023-05-11T00:21:11.908Z,38.40
2023-05-11T00:26:08.341Z,37.72
2023-05-11T00:31:04.839Z,38.35
2023-05-11T00:36:01.816Z,37.03
2023-05-11T00:40:58.304Z,38.33
2023-05-11T00:45:54.812Z,41.78
2023-05-11T00:50:51.419Z,38.88
2023-05-11T00:55:48.032Z,44.00
2023-05-11T01:00:44.668Z,48.00
2023-05-11T01:05:48.694Z,33.60
2023-05-11T01:10:54.130Z,39.42
2023-05-11T01:15:52.416Z,38.50
2023-05-11T01:20:51.043Z,26.70
2023-05-11T01:25:59.538Z,39.38
2023-05-11T01:31:07.078Z,35.00
2023-05-11T01:36:07.909Z,33.28
2023-05-11T01:41:12.106Z,32.80
2023-05-11T01:46:10.794Z,25.73
2023-05-11T01:51:09.011Z,24.65
2023-05-11T02:01:04.238Z,41.95
2023-05-11T02:06:03.076Z,38.92
2023-05-11T02:11:02.375Z,47.72
2023-05-11T02:16:00.242Z,41.35
2023-05-11T02:20:59.351Z,28.55
2023-05-11T02:25:56.890Z,33.22
2023-05-11T02:30:56.847Z,30.15
2023-05-11T02:35:55.898Z,33.22
2023-05-11T02:40:57.567Z,36.88
2023-05-11T02:45:59.113Z,36.38
2023-05-11T02:50:58.253Z,44.08
2023-05-11T02:55:55.857Z,39.70
2023-05-11T03:00:52.962Z,39.00
2023-05-11T03:05:49.439Z,40.15
2023-05-11T03:10:46.814Z,36.15
2023-05-11T03:15:44.060Z,42.63
2023-05-11T03:20:43.576Z,34.28
2023-05-11T03:25:42.947Z,25.55
2023-05-11T03:30:40.421Z,35.95
2023-05-11T03:35:37.811Z,42.50
2023-05-11T03:40:34.678Z,39.23
2023-05-11T03:45:33.132Z,38.38
2023-05-11T03:50:30.630Z,35.72
2023-05-11T03:55:27.734Z,40.07
2023-05-11T04:00:24.377Z,38.63
2023-05-11T04:05:20.790Z,42.50
2023-05-11T04:10:17.314Z,42.10
2023-05-11T04:15:13.807Z,46.08
2023-05-11T04:20:10.417Z,42.45
2023-05-11T04:25:07.131Z,46.80
2023-05-11T04:30:03.725Z,52.97
2023-05-11T04:35:00.090Z,49.15
2023-05-11T04:39:57.087Z,43.45
2023-05-11T04:44:54.521Z,47.42
2023-05-11T04:49:51.942Z,46.33
2023-05-11T04:54:48.333Z,46.30
2023-05-11T04:59:44.903Z,50.10
2023-05-11T05:04:41.343Z,54.65
2023-05-11T05:09:37.770Z,53.90
2023-05-11T05:14:34.244Z,54.13
2023-05-11T05:19:30.670Z,59.92
2023-05-11T05:24:27.038Z,45.58
2023-05-11T05:29:23.435Z,53.15
2023-05-11T05:34:19.827Z,47.35
2023-05-11T05:39:16.738Z,48.40
2023-05-11T05:44:13.258Z,47.40
2023-05-11T05:49:09.760Z,43.10
2023-05-11T05:54:06.181Z,41.08
2023-05-11T05:59:02.626Z,40.47
2023-05-11T06:03:59.172Z,52.72
2023-05-11T06:08:55.695Z,45.63
2023-05-11T06:13:52.141Z,47.28
2023-05-11T06:18:48.506Z,52.55
2023-05-11T06:23:44.960Z,49.42
2023-05-11T06:28:41.338Z,50.63
2023-05-11T06:33:37.819Z,49.28
2023-05-11T06:38:34.193Z,58.20
2023-05-11T06:43:30.568Z,51.13
2023-05-11T06:48:29.722Z,56.88
2023-05-11T06:53:26.612Z,56.13
2023-05-11T06:58:23.173Z,55.28
2023-05-11T07:03:19.561Z,51.35
2023-05-11T07:08:16.008Z,50.13
2023-05-11T07:13:12.414Z,46.53
2023-05-11T07:18:08.929Z,46.47
2023-05-11T07:23:05.400Z,43.90
2023-05-11T07:28:01.845Z,40.72
2023-05-11T07:32:58.217Z,40.72
2023-05-11T07:37:54.835Z,42.78
2023-05-11T07:42:51.200Z,42.65
2023-05-11T07:47:47.640Z,42.65
2023-05-11T07:52:44.093Z,38.33
2023-05-11T07:57:40.486Z,35.30
2023-05-11T08:02:36.929Z,42.33
2023-05-11T08:07:33.387Z,40.35
2023-05-11T08:12:29.802Z,39.15
2023-05-11T08:17:26.384Z,41.75
2023-05-11T08:22:23.143Z,41.33
2023-05-11T08:27:19.576Z,40.92
2023-05-11T08:32:16.619Z,36.40
2023-05-11T08:37:13.725Z,41.22
2023-05-11T08:42:14.260Z,36.80
2023-05-11T08:47:22.868Z,35.47
2023-05-11T08:52:20.460Z,36.78
2023-05-11T08:57:17.535Z,30.35
2023-05-11T09:02:18.889Z,30.85
2023-05-11T09:07:17.439Z,30.60
2023-05-11T09:12:14.409Z,38.33
2023-05-11T09:17:11.087Z,39.58
2023-05-11T09:22:07.802Z,43.78
2023-05-11T09:27:09.154Z,32.88
2023-05-11T09:32:06.053Z,38.33
2023-05-11T09:37:02.430Z,32.03
2023-05-11T09:42:16.159Z,33.83
2023-05-11T09:47:19.846Z,29.35
2023-05-11T09:52:18.247Z,29.83
2023-05-11T09:57:27.122Z,22.50
2023-05-11T10:02:26.392Z,11.68
2023-05-11T10:07:28.301Z,9.98
2023-05-11T10:12:26.130Z,8.25
2023-05-11T10:17:22.631Z,12.52
2023-05-11T10:22:19.320Z,5.43
2023-05-11T10:27:17.810Z,5.47
2023-05-11T10:32:16.843Z,5.23
2023-05-11T10:37:15.255Z,6.35
2023-05-11T10:42:39.167Z,6.93
2023-05-11T10:47:41.571Z,6.45
2023-05-11T10:52:53.030Z,6.03
2023-05-11T10:58:09.485Z,12.95
2023-05-11T11:03:13.433Z,7.57
2023-05-11T11:08:10.080Z,6.65
2023-05-11T11:13:11.465Z,4.93
2023-05-11T11:18:28.015Z,5.38
2023-05-11T11:23:39.418Z,6.38
2023-05-11T11:28:54.068Z,5.10
2023-05-11T11:33:50.618Z,4.57
2023-05-11T11:39:03.870Z,4.13
2023-05-11T11:44:00.492Z,4.75
2023-05-11T11:49:08.092Z,4.88
2023-05-11T11:54:04.856Z,5.57
2023-05-11T11:59:03.892Z,4.28
2023-05-11T12:04:16.780Z,4.30
2023-05-11T12:09:19.126Z,6.03
2023-05-11T12:14:15.792Z,4.50
2023-05-11T12:19:12.244Z,3.45
2023-05-11T12:24:11.575Z,5.78
2023-05-11T12:29:13.189Z,4.20
2023-05-11T12:34:22.953Z,3.30
2023-05-11T12:39:25.444Z,4.03
2023-05-11T12:44:24.428Z,3.38
2023-05-11T12:49:26.410Z,3.30
2023-05-11T12:54:31.864Z,4.32
2023-05-11T12:59:30.251Z,4.53
2023-05-11T13:04:30.490Z,4.05
2023-05-11T13:09:27.862Z,4.82
2023-05-11T13:14:25.175Z,4.30
2023-05-11T13:19:29.373Z,4.73
2023-05-11T13:24:27.009Z,3.42
2023-05-11T13:29:23.426Z,4.05
2023-05-11T13:34:20.725Z,4.50
2023-05-11T13:39:17.272Z,5.17
2023-05-11T13:44:13.709Z,4.68
2023-05-11T13:49:10.169Z,5.20
2023-05-11T13:54:06.879Z,6.60
2023-05-11T13:59:03.559Z,10.07
2023-05-11T14:03:59.982Z,9.15
2023-05-11T14:08:56.467Z,10.02
2023-05-11T14:13:52.879Z,10.75
2023-05-11T14:18:50.621Z,10.85
2023-05-11T14:24:02.049Z,7.65
2023-05-11T14:28:58.804Z,6.78
2023-05-11T14:33:56.589Z,7.00
2023-05-11T14:38:53.237Z,7.00
2023-05-11T14:43:49.687Z,5.68
2023-05-11T14:48:46.071Z,6.13
2023-05-11T14:53:42.706Z,6.45
2023-05-11T14:58:39.190Z,3.97
2023-05-11T15:03:37.263Z,3.53
2023-05-11T15:08:33.818Z,4.18
2023-05-11T15:13:30.666Z,4.35
2023-05-11T15:18:27.125Z,5.60
2023-05-11T15:23:23.784Z,6.28
2023-05-11T15:28:20.816Z,5.40
2023-05-11T15:33:18.141Z,5.65
2023-05-11T15:38:14.592Z,5.77
2023-05-11T15:43:11.559Z,4.85
2023-05-11T15:48:08.025Z,8.63
2023-05-11T15:53:04.483Z,6.65
2023-05-11T15:58:00.875Z,8.43
2023-05-11T16:02:57.291Z,6.60
2023-05-11T16:07:53.725Z,7.00
2023-05-11T16:12:50.220Z,5.55
2023-05-11T16:17:47.403Z,5.40
2023-05-11T16:22:43.794Z,5.03
2023-05-11T16:27:40.221Z,5.85
2023-05-11T16:32:36.691Z,5.20
2023-05-11T16:37:33.121Z,4.15
2023-05-11T16:42:29.585Z,4.22
2023-05-11T16:47:26.118Z,5.53
2023-05-11T16:52:22.604Z,3.88
2023-05-11T16:57:19.072Z,7.03
2023-05-11T17:02:15.721Z,4.35
2023-05-11T17:07:14.868Z,5.53
2023-05-11T17:12:11.456Z,7.70
2023-05-11T17:17:08.462Z,5.57
2023-05-11T17:22:05.143Z,8.27
2023-05-11T17:27:01.561Z,6.35
2023-05-11T17:31:58.230Z,6.05
2023-05-11T17:36:54.773Z,7.40
2023-05-11T17:41:51.210Z,6.55
2023-05-11T17:46:47.847Z,5.97
2023-05-11T17:51:44.219Z,6.97
2023-05-11T17:56:41.197Z,8.50
2023-05-11T18:01:37.629Z,10.60
2023-05-11T18:06:34.648Z,10.15
2023-05-11T18:11:31.169Z,14.68
2023-05-11T18:16:27.717Z,17.23
2023-05-11T18:21:26.704Z,18.65
2023-05-11T18:26:26.034Z,16.75
2023-05-11T18:31:22.557Z,17.23
2023-05-11T18:36:19.004Z,19.77
2023-05-11T18:41:15.683Z,19.88
2023-05-11T18:46:12.178Z,21.08
2023-05-11T18:51:09.017Z,23.73
2023-05-11T18:56:05.496Z,24.48
2023-05-11T19:01:02.017Z,27.88
2023-05-11T19:06:00.615Z,25.05
2023-05-11T19:10:57.296Z,15.30
2023-05-11T19:15:53.803Z,15.43
2023-05-11T19:20:50.233Z,15.75
2023-05-11T19:25:46.673Z,14.02
2023-05-11T19:30:43.155Z,16.02
2023-05-11T19:35:40.576Z,17.17
2023-05-11T19:40:45.825Z,21.10
2023-05-11T19:45:46.357Z,26.67
2023-05-11T19:50:43.090Z,32.05
2023-05-11T19:55:40.354Z,32.38
2023-05-11T20:00:38.379Z,30.50
2023-05-11T20:05:35.143Z,34.38
2023-05-11T20:10:32.084Z,43.60
2023-05-11T20:15:28.479Z,50.83
2023-05-11T20:20:24.920Z,48.35
2023-05-11T20:25:21.724Z,41.45
2023-05-11T20:30:18.576Z,37.50
2023-05-11T20:35:15.101Z,38.10
2023-05-11T20:40:12.180Z,45.60
2023-05-11T20:45:09.057Z,44.80
2023-05-11T20:50:06.309Z,43.33
2023-05-11T20:55:03.334Z,55.57
2023-05-11T21:05:01.911Z,56.30
2023-05-11T21:09:58.547Z,58.28
2023-05-11T21:14:56.888Z,55.17
2023-05-11T21:19:53.588Z,53.65
2023-05-11T21:24:49.993Z,56.85
2023-05-11T21:29:46.343Z,61.20
2023-05-11T21:34:43.294Z,60.00
2023-05-11T21:39:39.645Z,59.58
2023-05-11T21:44:35.984Z,61.45
2023-05-11T21:49:33.154Z,60.45
2023-05-11T21:54:29.601Z,57.75
2023-05-11T21:59:27.001Z,54.80
2023-05-11T22:04:23.624Z,58.43
2023-05-11T22:09:20.397Z,63.42
2023-05-11T22:14:17.619Z,61.97
2023-05-11T22:19:13.964Z,56.92
2023-05-11T22:24:10.558Z,62.20
2023-05-11T22:29:06.976Z,65.85
2023-05-11T22:34:03.332Z,60.25
2023-05-11T22:38:59.734Z,56.75
2023-05-11T22:43:56.288Z,61.70
2023-05-11T22:48:52.743Z,62.10
2023-05-11T22:53:49.114Z,66.07
2023-05-11T22:58:45.828Z,55.80
2023-05-11T23:03:42.703Z,56.55
2023-05-11T23:08:39.343Z,60.28
2023-05-11T23:13:36.137Z,51.20
2023-05-11T23:18:32.898Z,51.38
2023-05-11T23:23:29.465Z,48.00
2023-05-11T23:28:26.024Z,50.97
2023-05-11T23:33:22.892Z,54.67
2023-05-11T23:38:19.268Z,48.25
2023-05-11T23:43:16.220Z,45.65
2023-05-11T23:48:12.660Z,46.88
2023-05-11T23:53:09.054Z,46.50
2023-05-11T23:58:05.413Z,48.75
